Список аэропортов
Фактическая погода:

25 августа, 21:00
Температура: +15°C (+15.0*)
Ветер: южный 1 м/с
Давление: *770 мм
неб. 990 м
Время (МСК)Темп. СВетерВлажностьДавлениеОблачностьОсадки
21:00+15ЮЗ, 1 м/с86%1027 гПаоблачно
22:00+14Ю, 1 м/с88%1027 гПас прояснениями
23:00+13Ю, 2 м/с92%1027 гПаоблачно
26 августа
00:00+13Ю, 2 м/с92%1026 гПаоблачно
01:00+13Ю, 2 м/с88%1026 гПаоблачно
02:00+13Ю, 3 м/с80%1026 гПаоблачно
03:00+14Ю, 3 м/с74%1026 гПаоблачно
04:00+14Ю, 3 м/с72%1026 гПаясно
05:00+14Ю, 3 м/с72%1025 гПас прояснениями
06:00+13Ю, 3 м/с80%1025 гПаоблачно
07:00+14Ю, 3 м/с79%1024 гПаоблачно
08:00+15ЮЗ, 4 м/с68%1024 гПаоблачно
09:00+18ЮЗ, 4 м/с62%1023 гПаоблачно
10:00+20ЮЗ, 4 м/с59%1023 гПаоблачно
11:00+21ЮЗ, 4 м/с54%1023 гПаоблачно
12:00+22ЮЗ, 4 м/с51%1022 гПаоблачно
13:00+23ЮЗ, 5 м/с54%1022 гПаоблачно
14:00+23ЮЗ, 5 м/с51%1022 гПаоблачно
15:00+23З, 4 м/с52%1021 гПаоблачно
16:00+23З, 4 м/с58%1021 гПаоблачно
17:00+22З, 4 м/с63%1021 гПаоблачносл. дождь
18:00+20З, 3 м/с76%1021 гПаоблачно
19:00+20З, 4 м/с75%1021 гПаоблачносл. дождь
20:00+19З, 4 м/с78%1020 гПаоблачнодождь
21:00+18З, 4 м/с92%1020 гПаоблачно
22:00+17З, 3 м/с96%1021 гПас прояснениями
23:00+17З, 4 м/с96%1021 гПаоблачно
27 августа
00:00+17З, 3 м/с97%1021 гПаоблачно
01:00+16З, 3 м/с98%1021 гПаоблачно
02:00+16З, 3 м/с98%1022 гПас прояснениями
03:00+15З, 2 м/с98%1023 гПаоблачно
04:00+14З, 2 м/с98%1023 гПаоблачно
05:00+14З, 2 м/с98%1023 гПаоблачно
06:00+13З, 2 м/с98%1024 гПаоблачно
07:00+13З, 2 м/с98%1024 гПаоблачно
08:00+14СЗ, 2 м/с94%1024 гПаоблачно
09:00+15СЗ, 2 м/с89%1024 гПаоблачно
10:00+17СЗ, 2 м/с82%1025 гПаоблачно
11:00+19З, 2 м/с64%1025 гПамалооблачно
12:00+20З, 4 м/с56%1025 гПаоблачно
13:00+20З, 4 м/с54%1026 гПас прояснениями
14:00+21З, 4 м/с51%1026 гПамалооблачно
15:00+21З, 4 м/с49%1026 гПамалооблачно
16:00+21З, 4 м/с49%1026 гПаясно
17:00+21З, 4 м/с49%1026 гПамалооблачно
18:00+21З, 4 м/с52%1026 гПамалооблачно
19:00+19З, 3 м/с61%1026 гПамалооблачно
20:00+18З, 3 м/с69%1026 гПас прояснениями
21:00+17З, 3 м/с77%1026 гПаоблачно